Nearby METAR Reports

KLNK - Lincoln, Nebraska, USA
Distance from station: WNW 8mi, 13km
Updated: Mon, 28-Nov-2022 11:54am CST
Clear
Clear
 Wind from SW
Wind: SW 22 mph , 35 km/h, Gust: 31 mph , 50 km/h
Temperature: 54°F , 12°C
Dew Point: 27°F , -3°C
Humidity: 35%
Barometer: 29.72 inHg , 1006.4 hPa
Clouds: Clear
Visibility: 10 miles , 16 km
2022/11/28 17:54 KLNK 281754Z 22019G27KT 10SM CLR 12/M03 A2972 RMK AO2 PK WND 21029/1706 SLP072 T01171028 10117 21033 58010
KAHQ - Wahoo, Nebraska, USA
Distance from station: N 31mi, 49km
Updated: Mon, 28-Nov-2022 12:15pm CST
Clear
Clear
 Wind from SW
Wind: SW 18 mph , 30 km/h, Gust: 25 mph , 41 km/h
Temperature: 54°F , 12°C
Dew Point: 28°F , -2°C
Humidity: 38%
Barometer: 29.69 inHg , 1005.4 hPa
Clouds: Clear
Visibility: 10 miles , 16 km
2022/11/28 18:15 KAHQ 281815Z AUTO 22016G22KT 10SM CLR 12/M02 A2969 RMK AO2 T01151025
 
KBIE - Beatrice Municip, Nebraska, USA
Distance from station: S 36mi, 57km
Updated: Mon, 28-Nov-2022 12:15pm CST
Clear
Clear
 Wind from SSW
Wind: SSW 16 mph , 26 km/h, Gust: 21 mph , 33 km/h
Temperature: 52°F , 11°C
Dew Point: 28°F , -2°C
Humidity: 41%
Barometer: 29.73 inHg , 1006.8 hPa
Clouds: Clear
Visibility: 10 miles , 16 km
2022/11/28 18:15 KBIE 281815Z AUTO 21014G18KT 10SM CLR 11/M02 A2973 RMK AO2 T01081017
KMLE - Omaha/Millard, Nebraska, USA
Distance from station: NE 39mi, 63km
Updated: Mon, 28-Nov-2022 12:15pm CST
Clear
Clear
 Wind from SW
Wind: SW 13 mph , 20 km/h, Gust: 16 mph , 26 km/h
Temperature: 52°F , 11°C
Dew Point: 27°F , -3°C
Humidity: 38%
Barometer: 29.71 inHg , 1006.1 hPa
Clouds: Clear
Visibility: 10 miles , 16 km
2022/11/28 18:15 KMLE 281815Z AUTO 22011G14KT 200V260 10SM CLR 11/M03 A2971 RMK AO2 T01061031
 
KPMV - Plattsmouth Muni, Nebraska, USA
Distance from station: ENE 39mi, 63km
Updated: Mon, 28-Nov-2022 12:15pm CST
Clear
Clear
 Wind from SSW
Wind: SSW 20 mph , 31 km/h, Gust: 28 mph , 44 km/h
Temperature: 48°F , 9°C
Wind Chill: 41°F , 5°C
Dew Point: 25°F , -4°C
Humidity: 40%
Barometer: 29.73 inHg , 1006.8 hPa
Clouds: Clear
Visibility: 10 miles , 16 km
2022/11/28 18:15 KPMV 281815Z AUTO 21017G24KT 10SM CLR 09/M04 A2973 RMK AO2 T00871038
KAFK - Nebraska City, Nebraska, USA
Distance from station: ESE 43mi, 69km
Updated: Mon, 28-Nov-2022 12:15pm CST
Clear
Clear
 Wind from SSW
Wind: SSW 16 mph , 26 km/h, Gust: 23 mph , 37 km/h
Temperature: 50°F , 10°C
Wind Chill: 44°F , 7°C
Dew Point: 27°F , -3°C
Humidity: 40%
Barometer: 29.73 inHg , 1006.8 hPa
Clouds: Clear
Visibility: 10 miles , 16 km
2022/11/28 18:15 KAFK 281815Z AUTO 21014G20KT 10SM CLR 10/M03 A2973 RMK AO2 T01011030
 
KOFF - Offutt Afb/Belle, Nebraska, USA
Distance from station: ENE 44mi, 70km
Updated: Mon, 28-Nov-2022 11:55am CST
Clear
Clear
 Wind from S
Wind: S 14 mph , 22 km/h, Gust: 18 mph , 30 km/h
Temperature: 50°F , 10°C
Wind Chill: 45°F , 7°C
Dew Point: 27°F , -3°C
Humidity: 40%
Barometer: 29.75 inHg , 1007.5 hPa
Clouds: Clear
Visibility: 10 miles , 16 km
2022/11/28 17:55 KOFF 281755Z AUTO 18012G16KT 10SM CLR 10/M03 A2975 RMK AO2 SLP086 T00951031 10095 21051 57014 PWINO PNO FZRANO TSNO CHINO RWY31 $
KFET - Fremont Muni Arp, Nebraska, USA
Distance from station: N 46mi, 74km
Updated: Mon, 28-Nov-2022 12:15pm CST
Clear
Clear
 Wind from SW
Wind: SW 15 mph , 24 km/h, Gust: 18 mph , 30 km/h
Temperature: 52°F , 11°C
Dew Point: 30°F , -1°C
Humidity: 44%
Barometer: 29.68 inHg , 1005.1 hPa
Clouds: Clear
Visibility: 10 miles , 16 km
2022/11/28 18:15 KFET 281815Z AUTO 22013G16KT 10SM CLR 11/M01 A2968 RMK AO2 T01051014
 
KBTA - Blair Muni, Nebraska, USA
Distance from station: NNE 51mi, 82km
Updated: Mon, 28-Nov-2022 12:15pm CST
Clear
Clear
 Wind from SSW
Wind: SSW 20 mph , 31 km/h, Gust: 28 mph , 44 km/h
Temperature: 46°F , 8°C
Wind Chill: 38°F , 3°C
Dew Point: 27°F , -3°C
Humidity: 46%
Barometer: 29.69 inHg , 1005.4 hPa
Clouds: Clear
Visibility: 10 miles , 16 km
2022/11/28 18:15 KBTA 281815Z AUTO 20017G24KT 10SM CLR 08/M03 A2969 RMK AO2 T00831031
KJYR - York, Nebraska, USA
Distance from station: W 52mi, 84km
Updated: Mon, 28-Nov-2022 12:15pm CST
Clear
Clear
 Wind from SSW
Wind: SSW 20 mph , 31 km/h
Temperature: 50°F , 10°C
Wind Chill: 44°F , 7°C
Dew Point: 28°F , -2°C
Humidity: 43%
Barometer: 29.66 inHg , 1004.4 hPa
Clouds: Clear
Visibility: 10 miles , 16 km
2022/11/28 18:15 KJYR 281815Z AUTO 20017KT 10SM CLR 10/M02 A2966 RMK AO2
 
KOMA - Omaha/Eppley, Nebraska, USA
Distance from station: NE 53mi, 85km
Updated: Mon, 28-Nov-2022 11:52am CST
Mostly Cloudy
Mostly Cloudy
 Wind from SSW
Wind: SSW 17 mph , 28 km/h, Gust: 25 mph , 41 km/h
Barometer: 29.72 inHg , 1006.4 hPa
Clouds: Mostly Cloudy
Cloud details: Partly Cloudy 20000 ft
Mostly Cloudy 25000 ft
2022/11/28 17:52 KOMA 281752Z 20015G22KT SCT200 BKN250 A2972 RMK AO2 PK WND 17026/1736 SLPNO 6//// 58014 PWINO FZRANO PNO $
KOLU - Columbus Muni, Nebraska, USA
Distance from station: NW 58mi, 93km
Updated: Mon, 28-Nov-2022 11:56am CST
Clear
Clear
 Wind from SSW
Wind: SSW 18 mph , 30 km/h, Gust: 22 mph , 35 km/h
Temperature: 52°F , 11°C
Dew Point: 28°F , -2°C
Humidity: 41%
Barometer: 29.68 inHg , 1005.1 hPa
Clouds: Clear
Visibility: 10 miles , 16 km
2022/11/28 17:56 KOLU 281756Z AUTO 21016G19KT 10SM CLR 11/M02 A2968 RMK AO2 SLP063 T01061017 10106 21017 58007